Las Vegas, Nevada
Current Conditions -  °F | °C
As of 2:56 AM on Friday 19 Dec 2014 (Local Time) from KLAS Reporting Station
Scattered Clouds Scattered Clouds  
Wind Chill: 38°   Ceiling: Unl
Heat Index: 42°   Visibility: 10mi
Dew Point: 35°   Wind: 7mph
Humidity: 76%   Direction: 200°SSW
Pressure: 30.19"   Gusts: NA
Location:  36.17°N, 115.13°W
Report Text: KLAS 191056Z 20006KT 10SM SCT250 06/02 A3019 RMK AO2 SLP222 T00560017
Loading
Personal Weather Stations






























Interactive Weather Map New forecast layout! Learn more

10-Day Weather Forecast

Advertisements
Track Severe Weather on mobile